Time;durP1;ratioP1;P1;durP2;ratioP2;P2;SDS_P1;SDS_P2;PMS_P1;PMS_P2;Temp;Humidity;BMP_temperature;BMP_pressure;BME280_temperature;BME280_humidity;BME280_pressure;Samples;Min_cycle;Max_cycle;Signal;HPM_P1;HPM_P2
2022/12/18 00:01:57;;;;;;;;;;;-9.90;99.90;;;;;;5073757;28;19913;-63
2022/12/18 00:04:23;;;;;;;;;;;-10.00;99.90;;;;;;5073609;28;19908;-62
2022/12/18 00:06:49;;;;;;;;;;;-10.00;99.90;;;;;;5073579;28;19909;-62
2022/12/18 00:09:14;;;;;;;;;;;-10.00;99.90;;;;;;5073621;28;19908;-62
2022/12/18 00:11:40;;;;;;;;;;;-9.90;99.90;;;;;;5073559;28;19958;-62
2022/12/18 00:14:05;;;;;;;;;;;-9.90;99.90;;;;;;5073566;28;20092;-62
2022/12/18 00:16:32;;;;;;;;;;;-9.90;99.90;;;;;;5073316;28;20013;-62
2022/12/18 00:18:59;;;;;;;;;;;-9.90;99.90;;;;;;5073778;28;19916;-62
2022/12/18 00:21:24;;;;;;;;;;;-9.90;99.90;;;;;;5073488;28;19962;-62
2022/12/18 00:23:50;;;;;;;;;;;-10.00;99.90;;;;;;5055540;28;19916;-62
2022/12/18 00:26:17;;;;;;;;;;;-10.00;99.90;;;;;;5073715;28;19936;-62
2022/12/18 00:28:44;;;;;;;;;;;-10.10;99.90;;;;;;5073728;28;19908;-62
2022/12/18 00:31:10;;;;;;;;;;;-10.20;99.90;;;;;;5055431;28;19916;-62
2022/12/18 00:33:36;;;;;;;;;;;-10.20;99.90;;;;;;5073408;28;19909;-62
2022/12/18 00:36:04;;;;;;;;;;;-10.30;99.90;;;;;;5073560;28;19935;-62
2022/12/18 00:38:29;;;;;;;;;;;-10.30;99.90;;;;;;5073599;28;19909;-62
2022/12/18 00:40:55;;;;;;;;;;;-10.30;99.90;;;;;;5055434;28;20003;-62
2022/12/18 00:43:21;;;;;;;;;;;-10.40;99.90;;;;;;5055303;28;19912;-62
2022/12/18 00:45:46;;;;;;;;;;;-10.40;99.90;;;;;;5073522;28;19915;-62
2022/12/18 00:48:11;;;;;;;;;;;-10.40;99.90;;;;;;5073365;28;19916;-62
2022/12/18 00:50:38;;;;;;;;;;;-10.40;99.90;;;;;;5073206;28;19915;-62
2022/12/18 00:53:03;;;;;;;;;;;-10.50;99.90;;;;;;5073450;28;19958;-62
2022/12/18 00:55:28;;;;;;;;;;;-10.50;99.90;;;;;;5073074;28;19912;-62
2022/12/18 00:57:54;;;;;;;;;;;-10.50;99.90;;;;;;5073140;28;19974;-62
2022/12/18 01:00:19;;;;;;;;;;;-10.60;99.90;;;;;;5073138;28;20020;-62
2022/12/18 01:02:45;;;;;;;;;;;-10.60;99.90;;;;;;5075920;28;20423;-62
2022/12/18 01:05:11;;;;;;;;;;;-10.60;99.90;;;;;;5077074;28;19935;-62
2022/12/18 01:07:37;;;;;;;;;;;-10.60;99.90;;;;;;5076782;28;19915;-62
2022/12/18 01:10:02;;;;;;;;;;;-10.70;99.90;;;;;;5059161;28;20309;-62
2022/12/18 01:12:28;;;;;;;;;;;-10.60;99.90;;;;;;5058872;28;19999;-62
2022/12/18 01:14:53;;;;;;;;;;;-10.60;99.90;;;;;;5076409;28;19963;-62
2022/12/18 01:17:19;;;;;;;;;;;-10.60;99.90;;;;;;5076888;28;19995;-62
2022/12/18 01:19:44;;;;;;;;;;;-10.70;99.90;;;;;;5076552;28;20384;-63
2022/12/18 01:22:10;;;;;;;;;;;-10.70;99.90;;;;;;5076521;28;19913;-62
2022/12/18 01:24:35;;;;;;;;;;;-10.70;99.90;;;;;;5076462;28;19915;-62
2022/12/18 01:27:01;;;;;;;;;;;-10.70;99.90;;;;;;5076524;28;19908;-62
2022/12/18 01:29:26;;;;;;;;;;;-10.70;99.90;;;;;;5076366;28;19908;-62
2022/12/18 01:31:54;;;;;;;;;;;-10.70;99.90;;;;;;5076340;28;19915;-62
2022/12/18 01:34:19;;;;;;;;;;;-10.70;99.90;;;;;;5076309;28;19950;-63
2022/12/18 01:36:45;;;;;;;;;;;-10.70;99.90;;;;;;5076235;28;20337;-63
2022/12/18 01:39:11;;;;;;;;;;;-10.70;99.90;;;;;;5076532;28;19961;-63
2022/12/18 01:42:05;;;;;;;;;;;-10.70;99.90;;;;;;5076458;28;19909;-63
2022/12/18 01:44:42;;;;;;;;;;;-10.70;99.90;;;;;;5075955;28;19908;-63
2022/12/18 01:47:08;;;;;;;;;;;-10.70;99.90;;;;;;5075970;28;20345;-63
2022/12/18 01:49:33;;;;;;;;;;;-10.80;99.90;;;;;;5076054;28;20069;-67
2022/12/18 01:51:59;;;;;;;;;;;-10.70;99.90;;;;;;5076294;28;19931;-63
2022/12/18 01:54:24;;;;;;;;;;;-10.70;99.90;;;;;;5076216;28;19944;-63
2022/12/18 01:56:49;;;;;;;;;;;-10.70;99.90;;;;;;5058119;28;19909;-63
2022/12/18 01:59:15;;;;;;;;;;;-10.70;99.90;;;;;;5075869;28;19909;-63
2022/12/18 02:01:40;;;;;;;;;;;-10.70;99.90;;;;;;5075761;28;19974;-63
2022/12/18 02:04:22;;;;;;;;;;;-10.60;99.90;;;;;;5075801;28;19973;-63
2022/12/18 02:06:52;;;;;;;;;;;-10.60;99.90;;;;;;5075733;28;19909;-63
2022/12/18 02:09:20;;;;;;;;;;;-10.50;99.90;;;;;;5075962;28;19912;-63
2022/12/18 02:12:06;;;;;;;;;;;-10.50;99.90;;;;;;5057888;28;20007;-63
2022/12/18 02:14:36;;;;;;;;;;;-10.50;99.90;;;;;;5075125;28;19929;-63
2022/12/18 02:17:12;;;;;;;;;;;-10.50;99.90;;;;;;5075796;28;19909;-63
2022/12/18 02:19:57;;;;;;;;;;;-10.50;99.90;;;;;;5075496;28;19915;-63
2022/12/18 02:22:26;;;;;;;;;;;-10.50;99.90;;;;;;5057445;28;19951;-63
2022/12/18 02:27:39;;;;;;;;;;;-10.40;99.90;;;;;;5071163;28;19913;-63
2022/12/18 02:30:05;;;;;;;;;;;-10.40;99.90;;;;;;5071279;28;19913;-63
2022/12/18 02:32:33;;;;;;;;;;;-10.40;99.90;;;;;;5070968;28;19909;-63
2022/12/18 02:35:00;;;;;;;;;;;-10.40;99.90;;;;;;5070885;28;20362;-64
2022/12/18 02:37:27;;;;;;;;;;;-10.50;99.90;;;;;;5071119;28;20389;-63
2022/12/18 02:39:54;;;;;;;;;;;-10.50;99.90;;;;;;5070830;28;20286;-62
2022/12/18 02:42:19;;;;;;;;;;;-10.50;99.90;;;;;;5070796;28;19916;-61
2022/12/18 02:44:46;;;;;;;;;;;-10.50;99.90;;;;;;5070686;28;19963;-61
2022/12/18 02:47:13;;;;;;;;;;;-10.50;99.90;;;;;;5070563;28;19923;-61
2022/12/18 02:49:58;;;;;;;;;;;-10.60;99.90;;;;;;5070596;28;19986;-61
2022/12/18 02:52:34;;;;;;;;;;;-10.60;99.90;;;;;;5070594;28;19915;-62
2022/12/18 02:55:20;;;;;;;;;;;-10.60;99.90;;;;;;5069218;28;19916;-62
2022/12/18 02:57:53;;;;;;;;;;;-10.60;99.90;;;;;;5070431;28;19915;-62
2022/12/18 03:00:20;;;;;;;;;;;-10.60;99.90;;;;;;5070406;28;19999;-62
2022/12/18 03:02:48;;;;;;;;;;;-10.60;99.90;;;;;;5069119;28;19923;-63
2022/12/18 03:05:17;;;;;;;;;;;-10.60;99.90;;;;;;5070242;28;20319;-62
2022/12/18 03:07:47;;;;;;;;;;;-10.60;99.90;;;;;;5070159;28;19909;-62
2022/12/18 03:10:16;;;;;;;;;;;-10.60;99.90;;;;;;5070458;28;20321;-62
2022/12/18 03:12:46;;;;;;;;;;;-10.60;99.90;;;;;;5070155;28;19908;-63
2022/12/18 03:15:14;;;;;;;;;;;-10.60;99.90;;;;;;5070315;28;20003;-62
2022/12/18 03:17:41;;;;;;;;;;;-10.50;99.90;;;;;;5070314;28;19927;-62
2022/12/18 03:20:12;;;;;;;;;;;-10.50;99.90;;;;;;5069989;28;19915;-62
2022/12/18 03:22:38;;;;;;;;;;;-10.50;99.90;;;;;;5069939;28;19909;-62
2022/12/18 03:25:05;;;;;;;;;;;-10.60;99.90;;;;;;5085670;28;20007;-62
2022/12/18 03:27:32;;;;;;;;;;;-10.60;99.90;;;;;;5089439;28;20281;-62
2022/12/18 03:30:07;;;;;;;;;;;-10.60;99.90;;;;;;5090135;28;19920;-62
2022/12/18 03:32:38;;;;;;;;;;;-10.60;99.90;;;;;;5090056;28;19908;-62
2022/12/18 03:35:04;;;;;;;;;;;-10.60;99.90;;;;;;5089947;28;20014;-63
2022/12/18 03:37:30;;;;;;;;;;;-10.60;99.90;;;;;;5084924;28;19908;-63
2022/12/18 03:39:55;;;;;;;;;;;-10.60;99.90;;;;;;5076392;28;20042;-63
2022/12/18 03:42:25;;;;;;;;;;;-10.60;99.90;;;;;;5058383;28;20002;-64
2022/12/18 03:44:57;;;;;;;;;;;-10.50;99.90;;;;;;5076247;28;19954;-63
2022/12/18 03:47:26;;;;;;;;;;;-10.50;99.90;;;;;;5076180;28;20339;-63
2022/12/18 03:50:12;;;;;;;;;;;-10.40;99.90;;;;;;5076192;28;20003;-63
2022/12/18 03:52:42;;;;;;;;;;;-10.50;99.90;;;;;;5076031;28;19999;-63
2022/12/18 03:55:09;;;;;;;;;;;-10.50;99.90;;;;;;5076087;28;20430;-62
2022/12/18 03:57:35;;;;;;;;;;;-10.50;99.90;;;;;;5075967;28;20421;-63
2022/12/18 04:00:05;;;;;;;;;;;-10.50;99.90;;;;;;5076056;28;19908;-63
2022/12/18 04:02:32;;;;;;;;;;;-10.50;99.90;;;;;;5075998;28;19908;-63
2022/12/18 04:04:59;;;;;;;;;;;-10.50;99.90;;;;;;5076197;28;20258;-63
2022/12/18 04:07:25;;;;;;;;;;;-10.50;99.90;;;;;;5075785;28;19919;-63
2022/12/18 04:09:53;;;;;;;;;;;-10.60;99.90;;;;;;5075824;28;19912;-63
2022/12/18 04:12:18;;;;;;;;;;;-10.60;99.90;;;;;;5076064;28;19920;-63
2022/12/18 04:14:44;;;;;;;;;;;-10.60;99.90;;;;;;5057817;28;20376;-63
2022/12/18 04:17:10;;;;;;;;;;;-10.60;99.90;;;;;;5075690;28;19909;-62
2022/12/18 04:19:35;;;;;;;;;;;-10.60;99.90;;;;;;5075643;28;20354;-62
2022/12/18 04:22:01;;;;;;;;;;;-10.70;99.90;;;;;;5075578;28;19908;-63
2022/12/18 04:24:26;;;;;;;;;;;-10.70;99.90;;;;;;5057598;28;19909;-62
2022/12/18 04:26:52;;;;;;;;;;;-10.70;99.90;;;;;;5075218;28;20007;-63
2022/12/18 04:29:17;;;;;;;;;;;-10.70;99.90;;;;;;5075728;28;19919;-63
2022/12/18 04:31:43;;;;;;;;;;;-10.60;99.90;;;;;;5075355;28;19909;-62
2022/12/18 04:34:08;;;;;;;;;;;-10.60;99.90;;;;;;5075643;28;19938;-63
2022/12/18 04:36:34;;;;;;;;;;;-10.60;99.90;;;;;;5057516;28;20349;-62
2022/12/18 04:38:59;;;;;;;;;;;-10.60;99.90;;;;;;5075241;28;19963;-62
2022/12/18 04:41:25;;;;;;;;;;;-10.50;99.90;;;;;;5075226;28;19912;-62
2022/12/18 04:43:50;;;;;;;;;;;-10.60;99.90;;;;;;5075204;28;20042;-63
2022/12/18 04:46:15;;;;;;;;;;;-10.60;99.90;;;;;;5075306;28;19912;-63
2022/12/18 04:48:41;;;;;;;;;;;-10.60;99.90;;;;;;5074545;28;19918;-62
2022/12/18 04:51:07;;;;;;;;;;;-10.60;99.90;;;;;;5074577;28;19908;-62
2022/12/18 04:53:32;;;;;;;;;;;-10.60;99.90;;;;;;5075209;28;19961;-62
2022/12/18 04:56:14;;;;;;;;;;;-10.60;99.90;;;;;;5075187;28;19956;-62
2022/12/18 04:58:40;;;;;;;;;;;-10.70;99.90;;;;;;5074851;28;19909;-63
2022/12/18 05:01:07;;;;;;;;;;;-10.60;99.90;;;;;;5074818;28;19915;-63
2022/12/18 05:03:32;;;;;;;;;;;-10.60;99.90;;;;;;5074727;28;19958;-62
2022/12/18 05:05:58;;;;;;;;;;;-10.60;99.90;;;;;;5074913;28;19916;-62
2022/12/18 05:08:23;;;;;;;;;;;-10.60;99.90;;;;;;5074637;28;20350;-63
2022/12/18 05:10:49;;;;;;;;;;;-10.60;99.90;;;;;;5074594;28;19999;-63
2022/12/18 05:13:14;;;;;;;;;;;-10.60;99.90;;;;;;5074558;28;19951;-62
2022/12/18 05:15:41;;;;;;;;;;;-10.60;99.90;;;;;;5074535;28;19908;-62
2022/12/18 05:18:07;;;;;;;;;;;-10.60;99.90;;;;;;5074513;28;19915;-62
2022/12/18 05:20:33;;;;;;;;;;;-10.60;99.90;;;;;;5056541;28;19908;-62
2022/12/18 05:22:58;;;;;;;;;;;-10.40;99.90;;;;;;5074406;28;20419;-62
2022/12/18 05:25:24;;;;;;;;;;;-10.20;99.90;;;;;;5074322;28;19916;-62
2022/12/18 05:27:49;;;;;;;;;;;-10.00;99.90;;;;;;5074602;28;19909;-62
2022/12/18 05:30:15;;;;;;;;;;;-9.80;99.90;;;;;;5074264;28;19914;-62
2022/12/18 05:32:41;;;;;;;;;;;-9.70;99.90;;;;;;5056302;28;19915;-62
2022/12/18 05:35:07;;;;;;;;;;;-9.70;99.90;;;;;;5074225;28;19908;-62
2022/12/18 05:37:33;;;;;;;;;;;-9.60;99.90;;;;;;5074092;28;19909;-62
2022/12/18 05:39:58;;;;;;;;;;;-9.50;99.90;;;;;;5074120;28;20007;-62
2022/12/18 05:42:24;;;;;;;;;;;-9.40;99.90;;;;;;5074071;28;19909;-62
2022/12/18 05:44:50;;;;;;;;;;;-9.30;99.90;;;;;;5074310;28;20342;-62
2022/12/18 05:47:15;;;;;;;;;;;-9.20;99.90;;;;;;5073926;28;19999;-62
2022/12/18 05:49:41;;;;;;;;;;;-9.00;99.90;;;;;;5073958;28;20293;-62
2022/12/18 05:52:06;;;;;;;;;;;-9.00;99.90;;;;;;5074210;28;19912;-62
2022/12/18 05:54:32;;;;;;;;;;;-9.10;99.90;;;;;;5074157;28;19908;-62
2022/12/18 05:56:57;;;;;;;;;;;-9.30;99.90;;;;;;5073876;28;20003;-63
2022/12/18 05:59:23;;;;;;;;;;;-9.50;99.90;;;;;;5074090;28;20415;-63
2022/12/18 06:01:48;;;;;;;;;;;-9.60;99.90;;;;;;5073846;28;20382;-62
2022/12/18 06:04:14;;;;;;;;;;;-9.70;99.90;;;;;;5073761;28;19908;-62
2022/12/18 06:06:39;;;;;;;;;;;-9.80;99.90;;;;;;5073655;28;19913;-62
2022/12/18 06:09:09;;;;;;;;;;;-9.90;99.90;;;;;;5073643;28;19915;-62
2022/12/18 06:11:36;;;;;;;;;;;-9.90;99.90;;;;;;5073973;28;19909;-62
2022/12/18 06:14:03;;;;;;;;;;;-9.90;99.90;;;;;;5073668;28;19908;-63
2022/12/18 06:16:28;;;;;;;;;;;-10.00;99.90;;;;;;5055665;28;20285;-62
2022/12/18 06:18:57;;;;;;;;;;;-9.90;99.90;;;;;;5073566;28;19913;-62
2022/12/18 06:21:23;;;;;;;;;;;-9.80;99.90;;;;;;5073860;28;19909;-63
2022/12/18 06:23:48;;;;;;;;;;;-9.70;99.90;;;;;;5055620;28;19954;-62
2022/12/18 06:26:14;;;;;;;;;;;-9.50;99.90;;;;;;5055398;28;20271;-62
2022/12/18 06:28:40;;;;;;;;;;;-9.40;99.90;;;;;;5073485;28;19958;-62
2022/12/18 06:31:05;;;;;;;;;;;-9.30;99.90;;;;;;5073806;28;19909;-62
2022/12/18 06:33:31;;;;;;;;;;;-9.30;99.90;;;;;;5073497;28;19916;-62
2022/12/18 06:36:05;;;;;;;;;;;-9.20;99.90;;;;;;5073693;28;19985;-62
2022/12/18 06:38:32;;;;;;;;;;;-9.10;99.90;;;;;;5073466;28;20369;-62
2022/12/18 06:40:57;;;;;;;;;;;-9.00;99.90;;;;;;5073445;28;19909;-63
2022/12/18 06:43:23;;;;;;;;;;;-8.90;99.90;;;;;;5073646;28;19908;-63
2022/12/18 06:45:52;;;;;;;;;;;-8.80;99.90;;;;;;5073337;28;19924;-62
2022/12/18 06:48:19;;;;;;;;;;;-8.80;99.90;;;;;;5073611;28;19909;-62
2022/12/18 06:50:45;;;;;;;;;;;-8.90;99.90;;;;;;5073296;28;19912;-62
2022/12/18 06:53:10;;;;;;;;;;;-9.00;99.90;;;;;;5073514;28;19957;-62
2022/12/18 06:55:36;;;;;;;;;;;-9.00;99.90;;;;;;5073569;28;19916;-64
2022/12/18 06:58:01;;;;;;;;;;;-8.90;99.90;;;;;;5073364;28;20412;-64
2022/12/18 07:00:26;;;;;;;;;;;-9.00;99.90;;;;;;5073301;28;19908;-62
2022/12/18 07:02:52;;;;;;;;;;;-9.00;99.90;;;;;;5073384;28;19916;-64
2022/12/18 07:05:17;;;;;;;;;;;-9.00;99.90;;;;;;5073132;28;20073;-63
2022/12/18 07:07:43;;;;;;;;;;;-9.10;99.90;;;;;;5073208;28;19909;-63
2022/12/18 07:10:09;;;;;;;;;;;-9.20;99.90;;;;;;5073243;28;20007;-64
2022/12/18 07:12:34;;;;;;;;;;;-9.30;99.90;;;;;;5056215;28;20335;-63
2022/12/18 07:15:00;;;;;;;;;;;-9.30;99.90;;;;;;5076918;28;20397;-63
2022/12/18 07:17:25;;;;;;;;;;;-9.30;99.90;;;;;;5076864;28;20381;-63
2022/12/18 07:19:51;;;;;;;;;;;-9.30;99.90;;;;;;5076807;28;19908;-63
2022/12/18 07:22:16;;;;;;;;;;;-9.30;99.90;;;;;;5076731;28;19912;-63
2022/12/18 07:24:41;;;;;;;;;;;-9.20;99.90;;;;;;5076639;28;19915;-63
2022/12/18 07:27:07;;;;;;;;;;;-9.20;99.90;;;;;;5076412;28;19920;-62
2022/12/18 07:29:32;;;;;;;;;;;-9.00;99.90;;;;;;5058768;28;19908;-63
2022/12/18 07:31:58;;;;;;;;;;;-8.90;99.90;;;;;;5076595;28;19912;-63
2022/12/18 07:34:24;;;;;;;;;;;-8.80;99.90;;;;;;5058982;28;19916;-63
2022/12/18 07:36:49;;;;;;;;;;;-8.80;99.90;;;;;;5076542;28;19909;-63
2022/12/18 07:39:15;;;;;;;;;;;-8.80;99.90;;;;;;5058632;28;20006;-63
2022/12/18 07:41:45;;;;;;;;;;;-8.80;99.90;;;;;;5076382;28;19908;-63
2022/12/18 07:44:11;;;;;;;;;;;-8.90;99.90;;;;;;5076580;28;19915;-62
2022/12/18 07:46:37;;;;;;;;;;;-8.90;99.90;;;;;;5076220;28;20003;-62
2022/12/18 07:49:02;;;;;;;;;;;-8.90;99.90;;;;;;5076238;28;20400;-63
2022/12/18 07:51:27;;;;;;;;;;;-8.90;99.90;;;;;;5076488;28;19920;-62
2022/12/18 07:53:53;;;;;;;;;;;-8.90;99.90;;;;;;5076472;28;19999;-64
2022/12/18 07:56:19;;;;;;;;;;;-8.80;99.90;;;;;;5076164;28;19958;-63
2022/12/18 07:58:47;;;;;;;;;;;-8.80;99.90;;;;;;5076402;28;19940;-62
2022/12/18 08:01:13;;;;;;;;;;;-8.60;99.90;;;;;;5076068;28;19912;-64
2022/12/18 08:03:39;;;;;;;;;;;-8.40;99.90;;;;;;5076232;28;19919;-62
2022/12/18 08:06:06;;;;;;;;;;;-8.00;99.90;;;;;;5075873;28;19967;-61
2022/12/18 08:08:31;;;;;;;;;;;-7.50;99.90;;;;;;5076149;28;20311;-61
2022/12/18 08:10:57;;;;;;;;;;;-7.20;99.90;;;;;;5076101;28;19999;-61
2022/12/18 08:13:23;;;;;;;;;;;-6.80;99.90;;;;;;5075753;28;20361;-62
2022/12/18 08:16:05;;;;;;;;;;;-6.30;99.90;;;;;;5076000;28;20387;-62
2022/12/18 08:18:34;;;;;;;;;;;-6.10;99.90;;;;;;5075916;28;20266;-62
2022/12/18 08:21:16;;;;;;;;;;;-5.90;99.90;;;;;;5075688;28;19908;-63
2022/12/18 08:23:42;;;;;;;;;;;-5.30;99.90;;;;;;5075731;28;19912;-63
2022/12/18 08:26:08;;;;;;;;;;;-4.50;99.90;;;;;;5075286;28;19927;-63
2022/12/18 08:28:33;;;;;;;;;;;-4.10;99.90;;;;;;5075752;28;19919;-63
2022/12/18 08:30:59;;;;;;;;;;;-4.30;99.90;;;;;;5075445;28;19959;-63
2022/12/18 08:33:24;;;;;;;;;;;-4.40;99.90;;;;;;5075677;28;19912;-64
2022/12/18 08:35:50;;;;;;;;;;;-4.60;99.90;;;;;;5075691;28;20393;-63
2022/12/18 08:38:15;;;;;;;;;;;-4.70;99.90;;;;;;5075565;28;19947;-63
2022/12/18 08:40:41;;;;;;;;;;;-4.90;99.90;;;;;;5075548;28;19909;-63
2022/12/18 08:45:53;;;;;;;;;;;-4.90;99.90;;;;;;5074904;28;19912;-63
2022/12/18 08:48:18;;;;;;;;;;;-4.40;99.90;;;;;;5075351;28;19920;-63
2022/12/18 08:50:43;;;;;;;;;;;-4.00;99.90;;;;;;5075080;28;19909;-63
2022/12/18 08:53:09;;;;;;;;;;;-3.50;99.90;;;;;;5074997;28;19940;-63
2022/12/18 08:55:35;;;;;;;;;;;-3.20;99.90;;;;;;5074994;28;19915;-64
2022/12/18 08:58:00;;;;;;;;;;;-3.20;99.90;;;;;;5075167;28;19908;-64
2022/12/18 09:00:26;;;;;;;;;;;-3.10;99.90;;;;;;5075158;28;19931;-63
2022/12/18 09:02:51;;;;;;;;;;;-2.90;99.90;;;;;;5075112;28;19909;-63
2022/12/18 09:05:17;;;;;;;;;;;-2.30;99.90;;;;;;5075061;28;19916;-63
2022/12/18 09:07:42;;;;;;;;;;;-2.00;99.90;;;;;;5074714;28;19912;-63
2022/12/18 09:10:08;;;;;;;;;;;-1.70;99.90;;;;;;5074642;28;19913;-63
2022/12/18 09:12:33;;;;;;;;;;;-1.50;99.90;;;;;;5074928;28;19915;-63
2022/12/18 09:14:59;;;;;;;;;;;-1.30;99.90;;;;;;5074634;28;19919;-63
2022/12/18 09:17:24;;;;;;;;;;;-1.70;99.90;;;;;;5056771;28;20365;-62
2022/12/18 09:19:49;;;;;;;;;;;-2.00;99.90;;;;;;5074462;28;19931;-62
2022/12/18 09:22:15;;;;;;;;;;;-2.40;99.90;;;;;;5074464;28;19908;-62
2022/12/18 09:24:40;;;;;;;;;;;-2.50;99.90;;;;;;5074659;28;19934;-63
2022/12/18 09:27:06;;;;;;;;;;;-2.30;99.90;;;;;;5074147;28;20358;-63
2022/12/18 09:29:32;;;;;;;;;;;-2.10;99.90;;;;;;5074298;28;19913;-63
2022/12/18 09:31:57;;;;;;;;;;;-1.20;99.90;;;;;;5074252;28;19915;-63
2022/12/18 09:34:23;;;;;;;;;;;-0.70;99.90;;;;;;5074230;28;20273;-63
2022/12/18 09:36:48;;;;;;;;;;;-0.20;99.90;;;;;;5073958;28;19912;-62
2022/12/18 09:39:14;;;;;;;;;;;0.10;99.90;;;;;;5074075;28;20270;-63
2022/12/18 09:41:43;;;;;;;;;;;0.10;99.90;;;;;;5074344;28;20004;-63
2022/12/18 09:46:52;;;;;;;;;;;-0.20;99.90;;;;;;5071184;28;19920;-63
2022/12/18 09:49:19;;;;;;;;;;;-0.40;99.90;;;;;;5071261;28;19959;-63
2022/12/18 09:51:46;;;;;;;;;;;-0.50;99.90;;;;;;5069697;28;19913;-63
2022/12/18 09:54:16;;;;;;;;;;;-0.50;99.90;;;;;;5071179;28;20247;-63
2022/12/18 09:56:43;;;;;;;;;;;-0.40;99.90;;;;;;5071117;28;20083;-63
2022/12/18 09:59:20;;;;;;;;;;;0.00;99.90;;;;;;5070805;28;19909;-63
2022/12/18 10:01:45;;;;;;;;;;;0.20;99.90;;;;;;5071012;28;20381;-63
2022/12/18 10:04:10;;;;;;;;;;;0.80;99.90;;;;;;5070723;28;19962;-63
2022/12/18 10:06:44;;;;;;;;;;;1.20;99.90;;;;;;5070596;28;19913;-63
2022/12/18 10:09:18;;;;;;;;;;;1.80;99.90;;;;;;5070616;28;19955;-63
2022/12/18 10:12:04;;;;;;;;;;;2.10;99.90;;;;;;5070818;28;20007;-63
2022/12/18 10:14:36;;;;;;;;;;;2.20;99.90;;;;;;5070491;28;19935;-63
2022/12/18 10:17:05;;;;;;;;;;;2.30;99.90;;;;;;5070450;28;19909;-63
2022/12/18 10:19:41;;;;;;;;;;;2.30;99.90;;;;;;5070370;28;20378;-63
2022/12/18 10:22:26;;;;;;;;;;;2.30;99.90;;;;;;5070726;28;19916;-63
2022/12/18 10:24:56;;;;;;;;;;;2.60;99.90;;;;;;5070349;28;19917;-63
2022/12/18 10:27:24;;;;;;;;;;;2.40;99.90;;;;;;5070479;28;20309;-63
2022/12/18 10:29:50;;;;;;;;;;;2.60;99.90;;;;;;5070382;28;19909;-63
2022/12/18 10:32:18;;;;;;;;;;;2.70;99.90;;;;;;5069968;28;19969;-63
2022/12/18 10:34:45;;;;;;;;;;;2.50;99.90;;;;;;5070120;28;20374;-63
2022/12/18 10:37:14;;;;;;;;;;;2.50;99.90;;;;;;5070284;28;20392;-63
2022/12/18 10:39:39;;;;;;;;;;;2.10;99.90;;;;;;5069980;28;19916;-63
2022/12/18 10:42:20;;;;;;;;;;;1.80;99.90;;;;;;5069903;28;19908;-63
2022/12/18 10:44:46;;;;;;;;;;;1.60;99.90;;;;;;5073437;28;19928;-63
2022/12/18 10:47:13;;;;;;;;;;;1.60;99.90;;;;;;5090335;28;19908;-63
2022/12/18 10:49:41;;;;;;;;;;;1.50;99.90;;;;;;5090286;28;19912;-63
2022/12/18 10:52:14;;;;;;;;;;;1.40;99.90;;;;;;5090263;28;19991;-63
2022/12/18 10:54:39;;;;;;;;;;;1.20;99.90;;;;;;5090192;28;19912;-63
2022/12/18 10:57:25;;;;;;;;;;;1.10;99.90;;;;;;5082635;28;20003;-63
2022/12/18 10:59:52;;;;;;;;;;;0.80;99.90;;;;;;5076255;28;20297;-63
2022/12/18 11:02:34;;;;;;;;;;;0.70;99.90;;;;;;5076326;28;19908;-63
2022/12/18 11:04:59;;;;;;;;;;;0.80;99.90;;;;;;5076150;28;19917;-63
2022/12/18 11:07:25;;;;;;;;;;;0.70;99.90;;;;;;5076283;28;19934;-63
2022/12/18 11:09:59;;;;;;;;;;;0.80;99.90;;;;;;5076401;28;19909;-63
2022/12/18 11:12:28;;;;;;;;;;;0.90;99.90;;;;;;5076429;28;19999;-63
2022/12/18 11:14:57;;;;;;;;;;;1.00;99.90;;;;;;5076306;28;19915;-63
2022/12/18 11:17:31;;;;;;;;;;;1.10;99.90;;;;;;5076287;28;19909;-63
2022/12/18 11:19:58;;;;;;;;;;;1.00;99.90;;;;;;5075986;28;19916;-64
2022/12/18 11:22:26;;;;;;;;;;;1.00;99.90;;;;;;5076193;28;19947;-63
2022/12/18 11:25:00;;;;;;;;;;;1.10;99.90;;;;;;5076084;28;19920;-63
2022/12/18 11:27:26;;;;;;;;;;;1.10;99.90;;;;;;5076142;28;19909;-63
2022/12/18 11:29:52;;;;;;;;;;;1.00;99.90;;;;;;5076080;28;20380;-63
2022/12/18 11:32:24;;;;;;;;;;;0.90;99.90;;;;;;5076046;28;19908;-63
2022/12/18 11:34:52;;;;;;;;;;;0.80;99.90;;;;;;5075964;28;19913;-63
2022/12/18 11:37:19;;;;;;;;;;;0.80;99.90;;;;;;5075647;28;19916;-63
2022/12/18 11:39:46;;;;;;;;;;;0.90;99.90;;;;;;5075810;28;19931;-63
2022/12/18 11:42:17;;;;;;;;;;;0.70;99.90;;;;;;5075532;28;19915;-63
2022/12/18 11:44:52;;;;;;;;;;;0.60;99.90;;;;;;5075270;28;19925;-63
2022/12/18 11:47:29;;;;;;;;;;;0.60;99.90;;;;;;5075506;28;19916;-63
2022/12/18 11:49:55;;;;;;;;;;;0.60;99.90;;;;;;5075714;28;19999;-63
2022/12/18 11:52:23;;;;;;;;;;;0.60;99.90;;;;;;5075611;28;19908;-63
2022/12/18 11:54:55;;;;;;;;;;;0.60;99.90;;;;;;5075594;28;20250;-63
2022/12/18 11:57:28;;;;;;;;;;;0.50;99.90;;;;;;5075196;28;19909;-63
2022/12/18 12:00:00;;;;;;;;;;;0.40;99.90;;;;;;5075186;28;20011;-63
2022/12/18 12:02:34;;;;;;;;;;;0.50;99.90;;;;;;5075183;28;19908;-63
2022/12/18 12:05:20;;;;;;;;;;;0.40;99.90;;;;;;5075041;28;19920;-63
2022/12/18 12:08:05;;;;;;;;;;;0.30;99.90;;;;;;5074481;28;19908;-63
2022/12/18 12:10:51;;;;;;;;;;;0.40;99.90;;;;;;5074643;28;19950;-63
2022/12/18 12:13:36;;;;;;;;;;;0.40;99.90;;;;;;5074787;28;19915;-63
2022/12/18 12:16:09;;;;;;;;;;;0.40;99.90;;;;;;5074744;28;19908;-63
2022/12/18 12:18:46;;;;;;;;;;;0.30;99.90;;;;;;5075111;28;19909;-63
2022/12/18 12:21:24;;;;;;;;;;;0.30;99.90;;;;;;5074778;28;19909;-63
2022/12/18 12:24:10;;;;;;;;;;;0.20;99.90;;;;;;5074753;28;19916;-63
2022/12/18 12:26:55;;;;;;;;;;;0.30;99.90;;;;;;5074482;28;20019;-63
2022/12/18 12:29:28;;;;;;;;;;;0.20;99.90;;;;;;5074467;28;20332;-63
2022/12/18 12:31:58;;;;;;;;;;;0.20;99.90;;;;;;5074604;28;19961;-63
2022/12/18 12:34:27;;;;;;;;;;;0.10;99.90;;;;;;5074571;28;19909;-63
2022/12/18 12:37:01;;;;;;;;;;;0.20;99.90;;;;;;5074489;28;19909;-63
2022/12/18 12:39:30;;;;;;;;;;;0.10;99.90;;;;;;5074469;28;19909;-63
2022/12/18 12:44:44;;;;;;;;;;;0.00;99.90;;;;;;5073924;28;19920;-63
2022/12/18 12:47:14;;;;;;;;;;;0.00;99.90;;;;;;5056458;28;20361;-63
2022/12/18 12:49:40;;;;;;;;;;;0.00;99.90;;;;;;5074284;28;20008;-63
2022/12/18 12:52:10;;;;;;;;;;;0.00;99.90;;;;;;5074212;28;20007;-63
2022/12/18 12:54:36;;;;;;;;;;;-0.10;99.90;;;;;;5074358;28;19909;-63
2022/12/18 12:57:06;;;;;;;;;;;-0.10;99.90;;;;;;5074415;28;20396;-63
2022/12/18 12:59:46;;;;;;;;;;;-0.10;99.90;;;;;;5074135;28;19958;-63
2022/12/18 13:02:30;;;;;;;;;;;-0.10;99.90;;;;;;5074072;28;19909;-63
2022/12/18 13:05:02;;;;;;;;;;;-0.10;99.90;;;;;;5073946;28;19920;-64
2022/12/18 13:07:47;;;;;;;;;;;0.00;99.90;;;;;;5073881;28;19908;-63
2022/12/18 13:10:23;;;;;;;;;;;0.00;99.90;;;;;;5073809;28;19912;-63
2022/12/18 13:13:09;;;;;;;;;;;0.10;99.90;;;;;;5074124;28;19908;-63
2022/12/18 13:15:43;;;;;;;;;;;0.00;99.90;;;;;;5073807;28;19969;-64
2022/12/18 13:20:48;;;;;;;;;;;0.00;99.90;;;;;;5071151;28;19919;-62
2022/12/18 13:23:34;;;;;;;;;;;0.00;99.90;;;;;;5070935;28;19919;-63
2022/12/18 13:26:19;;;;;;;;;;;0.00;99.90;;;;;;5071175;28;19908;-62
2022/12/18 13:28:47;;;;;;;;;;;0.00;99.90;;;;;;5070944;28;19909;-63
2022/12/18 13:31:33;;;;;;;;;;;0.00;99.90;;;;;;5071185;28;20263;-62
2022/12/18 13:34:16;;;;;;;;;;;0.00;99.90;;;;;;5070867;28;20431;-63
2022/12/18 13:36:42;;;;;;;;;;;0.00;99.90;;;;;;5070725;28;19951;-63
2022/12/18 13:39:10;;;;;;;;;;;-0.10;99.90;;;;;;5086305;28;19952;-63
2022/12/18 13:41:36;;;;;;;;;;;-0.10;99.90;;;;;;5070685;28;19955;-62
2022/12/18 13:44:21;;;;;;;;;;;-0.10;99.90;;;;;;5070817;28;19908;-62
2022/12/18 13:46:47;;;;;;;;;;;-0.10;99.90;;;;;;5070468;28;19916;-62
2022/12/18 13:51:52;;;;;;;;;;;0.00;99.90;;;;;;5091318;27;19913;-62
2022/12/18 13:54:24;;;;;;;;;;;0.00;99.90;;;;;;5124162;28;19913;-62
2022/12/18 13:56:49;;;;;;;;;;;0.00;99.90;;;;;;5091398;28;19909;-62
2022/12/18 13:59:19;;;;;;;;;;;0.10;99.90;;;;;;5091098;28;20289;-62
2022/12/18 14:01:48;;;;;;;;;;;0.00;99.90;;;;;;5091326;28;20330;-62
2022/12/18 14:04:30;;;;;;;;;;;0.00;99.90;;;;;;5090991;28;19909;-63
2022/12/18 14:07:13;;;;;;;;;;;0.00;99.90;;;;;;5091201;28;20029;-63
2022/12/18 14:09:43;;;;;;;;;;;0.00;99.90;;;;;;5090838;28;19912;-63
2022/12/18 14:15:03;;;;;;;;;;;-0.10;99.90;;;;;;5090637;28;19915;-64
2022/12/18 14:17:31;;;;;;;;;;;-0.10;99.90;;;;;;5091110;28;19908;-63
2022/12/18 14:19:57;;;;;;;;;;;-0.10;99.90;;;;;;5090712;28;19908;-63
2022/12/18 14:22:29;;;;;;;;;;;-0.20;99.90;;;;;;5090614;28;20011;-63
2022/12/18 14:25:14;;;;;;;;;;;-0.20;99.90;;;;;;5090619;28;19991;-63
2022/12/18 14:27:42;;;;;;;;;;;-0.30;99.90;;;;;;5090518;28;19909;-63
2022/12/18 14:30:28;;;;;;;;;;;-0.30;99.90;;;;;;5090730;28;19912;-63
2022/12/18 14:33:01;;;;;;;;;;;-0.40;99.90;;;;;;5090390;28;19916;-63
2022/12/18 14:35:27;;;;;;;;;;;-0.40;99.90;;;;;;5090700;28;20015;-63
2022/12/18 14:37:52;;;;;;;;;;;-0.40;99.90;;;;;;5090611;28;20008;-63
2022/12/18 14:40:17;;;;;;;;;;;-0.40;99.90;;;;;;5090619;28;19916;-63
2022/12/18 14:42:43;;;;;;;;;;;-0.40;99.90;;;;;;5123113;28;19915;-63
2022/12/18 14:45:28;;;;;;;;;;;-0.40;99.90;;;;;;5089019;28;20045;-63